createdAt,value
2017-08-24T00:00:14.363Z,100619.63
2017-08-24T00:01:20.355Z,100615.45
2017-08-24T00:02:30.518Z,100619.97
2017-08-24T00:03:36.845Z,100619.02
2017-08-24T00:04:43.015Z,100611.08
2017-08-24T00:05:49.122Z,100615.26
2017-08-24T00:06:55.257Z,100619.80
2017-08-24T00:08:01.215Z,100611.50
2017-08-24T00:09:07.426Z,100608.24
2017-08-24T00:10:13.647Z,100611.74
2017-08-24T00:11:19.781Z,100609.76
2017-08-24T00:12:26.400Z,100604.55
2017-08-24T00:13:32.578Z,100603.86
2017-08-24T00:14:38.789Z,100609.59
2017-08-24T00:15:45.446Z,100606.37
2017-08-24T00:16:51.630Z,100601.20
2017-08-24T00:17:57.580Z,100600.94
2017-08-24T00:19:03.628Z,100593.83
2017-08-24T00:20:09.718Z,100596.90
2017-08-24T00:21:15.774Z,100594.03
2017-08-24T00:22:21.812Z,100592.29
2017-08-24T00:23:27.923Z,100588.11
2017-08-24T00:24:34.056Z,100588.94
2017-08-24T00:25:40.443Z,100589.01
2017-08-24T00:26:46.565Z,100590.16
2017-08-24T00:27:52.731Z,100587.35
2017-08-24T00:28:59.373Z,100585.04
2017-08-24T00:30:06.564Z,100581.84
2017-08-24T00:31:12.863Z,100585.24
2017-08-24T00:32:18.946Z,100583.77
2017-08-24T00:33:24.696Z,100580.95
2017-08-24T00:34:30.818Z,100579.87
2017-08-24T00:35:37.459Z,100583.13
2017-08-24T00:36:43.425Z,100583.65
2017-08-24T00:37:49.640Z,100581.22
2017-08-24T00:38:55.959Z,100586.62
2017-08-24T00:40:02.461Z,100585.70
2017-08-24T00:41:08.605Z,100585.33
2017-08-24T00:42:15.023Z,100582.84
2017-08-24T00:43:20.895Z,100584.70
2017-08-24T00:44:27.001Z,100585.67
2017-08-24T00:45:33.182Z,100577.00
2017-08-24T00:46:39.383Z,100577.92
2017-08-24T00:47:45.673Z,100581.62
2017-08-24T00:48:51.652Z,100576.22
2017-08-24T00:49:57.779Z,100572.87
2017-08-24T00:51:03.842Z,100583.50
2017-08-24T00:52:09.782Z,100580.42
2017-08-24T00:53:16.141Z,100582.98
2017-08-24T00:54:21.874Z,100581.48
2017-08-24T00:55:28.173Z,100581.50
2017-08-24T00:56:34.090Z,100578.56
2017-08-24T00:57:40.285Z,100584.19
2017-08-24T00:58:46.474Z,100581.81
2017-08-24T00:59:52.684Z,100581.08
2017-08-24T01:00:58.094Z,100576.24
2017-08-24T01:02:04.060Z,100578.12
2017-08-24T01:03:09.744Z,100582.50
2017-08-24T01:04:15.833Z,100583.25
2017-08-24T01:05:21.572Z,100578.10
2017-08-24T01:06:27.724Z,100581.33
2017-08-24T01:07:33.844Z,100576.58
2017-08-24T01:08:39.907Z,100574.69
2017-08-24T01:09:46.069Z,100572.59
2017-08-24T01:10:52.178Z,100575.70
2017-08-24T01:11:58.256Z,100565.03
2017-08-24T01:13:04.354Z,100566.44
2017-08-24T01:14:10.478Z,100567.30
2017-08-24T01:15:16.866Z,100566.17
2017-08-24T01:16:22.955Z,100568.89
2017-08-24T01:17:28.920Z,100569.21
2017-08-24T01:18:35.042Z,100566.18
2017-08-24T01:19:40.761Z,100566.44
2017-08-24T01:20:46.980Z,100567.18
2017-08-24T01:21:52.204Z,100566.18
2017-08-24T01:22:57.951Z,100564.70
2017-08-24T01:24:03.725Z,100566.02
2017-08-24T01:25:09.467Z,100564.67
2017-08-24T01:26:15.198Z,100563.38
2017-08-24T01:27:20.666Z,100559.40
2017-08-24T01:28:26.386Z,100563.86
2017-08-24T01:29:32.106Z,100559.08
2017-08-24T01:30:38.143Z,100554.50
2017-08-24T01:31:44.053Z,100550.42
2017-08-24T01:32:50.102Z,100556.06
2017-08-24T01:33:56.220Z,100557.01
2017-08-24T01:35:02.301Z,100555.50
2017-08-24T01:36:08.458Z,100553.06
2017-08-24T01:37:14.648Z,100550.38
2017-08-24T01:38:20.791Z,100550.91
2017-08-24T01:39:26.899Z,100545.60
2017-08-24T01:40:32.827Z,100545.74
2017-08-24T01:41:38.887Z,100541.69
2017-08-24T01:42:44.978Z,100543.72
2017-08-24T01:43:51.094Z,100547.48
2017-08-24T01:44:57.152Z,100540.60
2017-08-24T01:46:02.454Z,100540.03
2017-08-24T01:47:08.330Z,100538.18
2017-08-24T01:48:14.438Z,100537.27
2017-08-24T01:49:20.482Z,100533.64
2017-08-24T01:50:26.559Z,100537.60
2017-08-24T01:51:32.680Z,100537.45
2017-08-24T01:52:38.761Z,100535.55
2017-08-24T01:53:44.147Z,100532.30
2017-08-24T01:54:50.221Z,100531.27
2017-08-24T01:55:56.374Z,100530.91
2017-08-24T01:57:02.462Z,100520.61
2017-08-24T01:58:08.997Z,100524.66
2017-08-24T01:59:15.097Z,100519.52
2017-08-24T02:00:21.184Z,100521.71
2017-08-24T02:01:27.094Z,100518.94
2017-08-24T02:02:33.289Z,100519.96
2017-08-24T02:03:39.391Z,100520.28
2017-08-24T02:04:45.558Z,100509.00
2017-08-24T02:05:51.627Z,100498.80
2017-08-24T02:06:57.710Z,100503.45
2017-08-24T02:08:03.778Z,100500.42
2017-08-24T02:09:09.828Z,100506.75
2017-08-24T02:10:15.973Z,100506.46
2017-08-24T02:11:22.069Z,100508.23
2017-08-24T02:12:28.156Z,100501.06
2017-08-24T02:13:34.248Z,100501.37
2017-08-24T02:14:40.348Z,100505.05
2017-08-24T02:15:46.460Z,100501.83
2017-08-24T02:16:52.570Z,100504.39
2017-08-24T02:17:58.634Z,100503.05
2017-08-24T02:19:04.711Z,100505.41
2017-08-24T02:20:10.775Z,100505.36
2017-08-24T02:21:16.925Z,100499.77
2017-08-24T02:22:22.981Z,100502.58
2017-08-24T02:23:29.130Z,100500.98
2017-08-24T02:24:35.214Z,100500.92
2017-08-24T02:25:41.273Z,100497.29
2017-08-24T02:26:47.149Z,100498.89
2017-08-24T02:27:53.192Z,100499.27
2017-08-24T02:28:59.283Z,100498.69
2017-08-24T02:30:05.404Z,100497.06
2017-08-24T02:31:11.426Z,100502.86
2017-08-24T02:32:17.576Z,100498.16
2017-08-24T02:33:23.701Z,100488.98
2017-08-24T02:34:30.086Z,100495.48
2017-08-24T02:35:36.180Z,100496.06
2017-08-24T02:36:42.312Z,100499.92
2017-08-24T02:37:48.476Z,100496.95
2017-08-24T02:38:54.630Z,100493.02
2017-08-24T02:40:01.529Z,100492.95
2017-08-24T02:41:07.677Z,100492.64
2017-08-24T02:42:13.780Z,100485.17
2017-08-24T02:43:19.884Z,100491.60
2017-08-24T02:44:26.473Z,100487.63
2017-08-24T02:45:32.648Z,100494.37
2017-08-24T02:46:38.823Z,100491.55
2017-08-24T02:47:44.956Z,100486.44
2017-08-24T02:48:51.713Z,100486.34
2017-08-24T02:49:58.041Z,100480.32
2017-08-24T02:51:04.180Z,100485.29
2017-08-24T02:52:10.590Z,100480.72
2017-08-24T02:53:16.781Z,100482.98
2017-08-24T02:54:23.064Z,100479.27
2017-08-24T02:55:29.135Z,100478.86
2017-08-24T02:56:35.231Z,100478.24
2017-08-24T02:57:42.252Z,100478.33
2017-08-24T02:58:48.473Z,100477.00
2017-08-24T02:59:54.704Z,100483.41
2017-08-24T03:01:00.806Z,100481.72
2017-08-24T03:02:06.704Z,100474.93
2017-08-24T03:03:12.841Z,100476.88
2017-08-24T03:04:18.911Z,100471.78
2017-08-24T03:05:25.356Z,100475.37
2017-08-24T03:06:31.430Z,100471.78
2017-08-24T03:07:38.343Z,100473.24
2017-08-24T03:08:44.437Z,100471.25
2017-08-24T03:09:50.509Z,100474.00
2017-08-24T03:10:56.625Z,100470.16
2017-08-24T03:12:02.747Z,100467.34
2017-08-24T03:13:08.831Z,100471.43
2017-08-24T03:14:14.902Z,100478.00
2017-08-24T03:15:20.964Z,100478.83
2017-08-24T03:16:27.146Z,100476.54
2017-08-24T03:17:33.237Z,100474.34
2017-08-24T03:18:39.350Z,100472.67
2017-08-24T03:19:45.434Z,100471.66
2017-08-24T03:20:51.532Z,100469.39
2017-08-24T03:21:57.641Z,100468.63
2017-08-24T03:23:03.709Z,100469.03
2017-08-24T03:24:09.779Z,100468.05
2017-08-24T03:25:15.845Z,100473.23
2017-08-24T03:26:21.877Z,100470.38
2017-08-24T03:27:28.046Z,100460.03
2017-08-24T03:28:34.927Z,100468.16
2017-08-24T03:29:43.942Z,100464.44
2017-08-24T03:30:50.098Z,100462.88
2017-08-24T03:31:57.007Z,100463.48
2017-08-24T03:33:03.100Z,100461.59
2017-08-24T03:34:09.596Z,100460.48
2017-08-24T03:35:17.710Z,100457.36
2017-08-24T03:36:24.291Z,100459.97
2017-08-24T03:37:30.383Z,100453.23
2017-08-24T03:38:36.504Z,100457.61
2017-08-24T03:39:42.657Z,100455.42
2017-08-24T03:40:48.766Z,100458.61
2017-08-24T03:41:54.885Z,100457.41
2017-08-24T03:43:01.002Z,100447.47
2017-08-24T03:44:07.132Z,100452.63
2017-08-24T03:45:13.172Z,100448.81
2017-08-24T03:46:19.274Z,100450.89
2017-08-24T03:47:25.338Z,100458.06
2017-08-24T03:48:31.664Z,100448.62
2017-08-24T03:49:38.315Z,100449.80
2017-08-24T03:50:44.507Z,100444.91
2017-08-24T03:51:50.607Z,100451.98
2017-08-24T03:52:56.712Z,100446.83
2017-08-24T03:54:02.876Z,100443.86
2017-08-24T03:55:09.092Z,100441.41
2017-08-24T03:56:15.160Z,100449.19
2017-08-24T03:57:21.280Z,100452.74
2017-08-24T03:58:27.437Z,100449.19
2017-08-24T03:59:33.721Z,100455.07
2017-08-24T04:00:39.873Z,100450.64
2017-08-24T04:01:45.936Z,100446.65
2017-08-24T04:02:52.377Z,100453.36
2017-08-24T04:03:58.496Z,100447.20
2017-08-24T04:05:04.564Z,100452.39
2017-08-24T04:06:10.715Z,100456.33
2017-08-24T04:07:16.874Z,100449.73
2017-08-24T04:08:23.421Z,100449.28
2017-08-24T04:09:29.436Z,100447.02
2017-08-24T04:10:35.491Z,100452.08
2017-08-24T04:11:41.562Z,100445.45
2017-08-24T04:12:47.594Z,100446.91
2017-08-24T04:13:54.134Z,100446.02
2017-08-24T04:15:00.218Z,100445.64
2017-08-24T04:16:06.585Z,100441.05
2017-08-24T04:17:12.718Z,100438.24
2017-08-24T04:18:18.775Z,100442.50
2017-08-24T04:19:25.112Z,100441.28
2017-08-24T04:20:31.193Z,100444.33
2017-08-24T04:21:37.273Z,100440.47
2017-08-24T04:22:43.408Z,100433.02
2017-08-24T04:23:49.509Z,100436.67
2017-08-24T04:24:55.626Z,100431.84
2017-08-24T04:26:01.784Z,100429.72
2017-08-24T04:27:07.887Z,100433.69
2017-08-24T04:28:14.024Z,100436.09
2017-08-24T04:29:20.324Z,100434.63
2017-08-24T04:30:26.476Z,100428.58
2017-08-24T04:31:32.562Z,100427.59
2017-08-24T04:32:40.474Z,100427.89
2017-08-24T04:33:47.637Z,100429.61
2017-08-24T04:34:53.993Z,100426.61
2017-08-24T04:36:00.665Z,100425.29
2017-08-24T04:37:06.952Z,100423.55
2017-08-24T04:38:13.764Z,100424.34
2017-08-24T04:39:19.956Z,100432.27
2017-08-24T04:40:26.613Z,100432.14
2017-08-24T04:41:32.792Z,100430.77
2017-08-24T04:42:39.744Z,100435.41
2017-08-24T04:43:46.764Z,100434.13
2017-08-24T04:44:53.185Z,100429.15
2017-08-24T04:45:59.928Z,100426.45
2017-08-24T04:47:08.654Z,100428.78
2017-08-24T04:48:15.365Z,100420.31
2017-08-24T04:49:22.171Z,100420.61
2017-08-24T04:50:28.864Z,100420.03
2017-08-24T04:51:35.769Z,100419.08
2017-08-24T04:52:42.359Z,100417.65
2017-08-24T04:53:50.674Z,100420.86
2017-08-24T04:54:57.555Z,100420.31
2017-08-24T04:56:03.914Z,100424.59
2017-08-24T04:57:10.698Z,100418.23
2017-08-24T04:58:17.796Z,100420.86
2017-08-24T04:59:24.426Z,100415.16
2017-08-24T05:00:30.545Z,100418.88
2017-08-24T05:01:37.177Z,100422.89
2017-08-24T05:02:43.411Z,100417.02
2017-08-24T05:03:49.772Z,100416.03
2017-08-24T05:04:56.321Z,100419.07
2017-08-24T05:06:02.433Z,100421.91
2017-08-24T05:07:08.785Z,100422.38
2017-08-24T05:08:15.859Z,100421.91
2017-08-24T05:09:22.765Z,100426.09
2017-08-24T05:10:28.915Z,100420.93
2017-08-24T05:11:35.086Z,100419.94
2017-08-24T05:12:41.271Z,100418.55
2017-08-24T05:13:47.522Z,100417.08
2017-08-24T05:14:53.675Z,100419.55
2017-08-24T05:15:59.817Z,100417.97
2017-08-24T05:17:05.954Z,100425.08
2017-08-24T05:18:12.114Z,100417.11
2017-08-24T05:19:18.261Z,100414.60
2017-08-24T05:20:24.889Z,100411.47
2017-08-24T05:21:31.001Z,100417.26
2017-08-24T05:22:37.184Z,100416.77
2017-08-24T05:23:43.470Z,100419.06
2017-08-24T05:24:49.868Z,100419.59
2017-08-24T05:25:56.015Z,100420.39
2017-08-24T05:27:02.131Z,100419.42
2017-08-24T05:28:08.290Z,100420.69
2017-08-24T05:29:14.422Z,100422.34
2017-08-24T05:30:20.479Z,100421.73
2017-08-24T05:31:26.608Z,100414.61
2017-08-24T05:32:32.714Z,100422.31
2017-08-24T05:33:38.927Z,100419.56
2017-08-24T05:34:44.843Z,100420.11
2017-08-24T05:35:50.934Z,100419.94
2017-08-24T05:36:57.020Z,100411.91
2017-08-24T05:38:03.082Z,100409.31
2017-08-24T05:39:09.374Z,100403.36
2017-08-24T05:40:15.470Z,100398.30
2017-08-24T05:41:21.533Z,100403.00
2017-08-24T05:42:27.664Z,100397.11
2017-08-24T05:43:34.530Z,100395.66
2017-08-24T05:44:40.749Z,100401.00
2017-08-24T05:45:47.216Z,100398.67
2017-08-24T05:46:54.135Z,100402.91
2017-08-24T05:48:00.340Z,100404.66
2017-08-24T05:49:06.513Z,100406.67
2017-08-24T05:50:12.791Z,100405.34
2017-08-24T05:51:18.800Z,100408.75
2017-08-24T05:52:24.573Z,100409.41
2017-08-24T05:53:30.632Z,100415.10
2017-08-24T05:54:36.736Z,100412.29
2017-08-24T05:55:43.309Z,100414.55
2017-08-24T05:56:49.437Z,100416.41
2017-08-24T05:57:55.545Z,100418.54
2017-08-24T05:59:02.019Z,100415.22
2017-08-24T06:00:08.441Z,100413.55
2017-08-24T06:01:14.962Z,100403.91
2017-08-24T06:02:21.305Z,100398.00
2017-08-24T06:03:27.152Z,100401.45
2017-08-24T06:04:34.310Z,100397.76
2017-08-24T06:05:40.726Z,100395.89
2017-08-24T06:06:48.611Z,100397.72
2017-08-24T06:07:55.938Z,100397.72
2017-08-24T06:09:02.753Z,100395.67
2017-08-24T06:10:09.349Z,100393.52
2017-08-24T06:11:17.515Z,100394.92
2017-08-24T06:12:24.257Z,100394.81
2017-08-24T06:13:31.050Z,100394.84
2017-08-24T06:14:38.700Z,100400.73
2017-08-24T06:15:46.020Z,100397.81
2017-08-24T06:16:52.785Z,100397.03
2017-08-24T06:17:59.871Z,100401.88
2017-08-24T06:19:07.039Z,100393.37
2017-08-24T06:20:14.227Z,100392.16
2017-08-24T06:21:21.306Z,100390.19
2017-08-24T06:22:27.877Z,100393.78
2017-08-24T06:23:38.634Z,100394.44
2017-08-24T06:24:47.537Z,100402.56
2017-08-24T06:25:55.454Z,100407.13
2017-08-24T06:27:05.446Z,100400.69
2017-08-24T06:28:17.013Z,100407.66
2017-08-24T06:29:25.367Z,100400.63
2017-08-24T06:30:33.062Z,100401.97
2017-08-24T06:31:45.520Z,100397.64
2017-08-24T06:33:01.046Z,100400.98
2017-08-24T06:34:08.865Z,100404.78
2017-08-24T06:35:17.903Z,100400.03
2017-08-24T06:36:26.989Z,100400.59
2017-08-24T06:37:36.346Z,100404.73
2017-08-24T06:38:45.874Z,100397.63
2017-08-24T06:39:55.681Z,100404.00
2017-08-24T06:41:05.431Z,100404.36
2017-08-24T06:42:13.842Z,100399.20
2017-08-24T06:43:24.201Z,100399.81
2017-08-24T06:44:33.809Z,100402.52
2017-08-24T06:45:43.142Z,100396.58
2017-08-24T06:46:52.654Z,100401.28
2017-08-24T06:48:01.876Z,100405.09
2017-08-24T06:49:12.589Z,100402.93
2017-08-24T06:50:25.718Z,100400.20
2017-08-24T06:53:16.465Z,100406.89
2017-08-24T06:54:29.550Z,100404.70
2017-08-24T06:55:40.919Z,100401.45
2017-08-24T06:56:50.209Z,100405.84
2017-08-24T06:57:59.526Z,100404.41
2017-08-24T06:59:08.726Z,100405.01
2017-08-24T07:00:18.863Z,100396.67
2017-08-24T07:01:28.414Z,100395.53
2017-08-24T07:02:39.801Z,100390.38
2017-08-24T07:03:49.521Z,100393.63
2017-08-24T07:04:58.276Z,100392.48
2017-08-24T07:06:07.596Z,100389.47
2017-08-24T07:07:15.304Z,100390.84
2017-08-24T07:08:24.207Z,100396.09
2017-08-24T07:09:33.411Z,100388.04
2017-08-24T07:10:41.868Z,100389.37
2017-08-24T07:11:49.688Z,100392.67
2017-08-24T07:12:56.459Z,100393.69
2017-08-24T07:14:03.515Z,100398.20
2017-08-24T07:15:10.296Z,100397.34
2017-08-24T07:16:16.892Z,100400.56
2017-08-24T07:17:25.175Z,100391.27
2017-08-24T07:18:33.280Z,100396.20
2017-08-24T07:19:41.467Z,100399.79
2017-08-24T07:20:49.086Z,100402.13
2017-08-24T07:21:58.343Z,100408.04
2017-08-24T07:23:07.036Z,100400.51
2017-08-24T07:24:16.603Z,100408.84
2017-08-24T07:25:26.085Z,100410.19
2017-08-24T07:26:35.841Z,100414.59
2017-08-24T07:27:45.739Z,100412.84
2017-08-24T07:28:55.612Z,100413.57
2017-08-24T07:30:04.432Z,100413.55
2017-08-24T07:31:13.181Z,100414.82
2017-08-24T07:32:22.281Z,100412.55
2017-08-24T07:33:30.389Z,100417.64
2017-08-24T07:34:38.577Z,100413.67
2017-08-24T07:35:47.516Z,100424.02
2017-08-24T11:59:31.861Z,100495.34
2017-08-24T12:00:41.487Z,100496.64
2017-08-24T12:01:50.889Z,100495.64
2017-08-24T12:02:59.610Z,100502.02
2017-08-24T12:04:07.795Z,100502.34
2017-08-24T12:05:27.685Z,100500.55
2017-08-24T12:06:37.697Z,100502.31
2017-08-24T12:07:46.647Z,100498.95
2017-08-24T12:08:54.620Z,100500.08
2017-08-24T12:10:03.221Z,100499.27
2017-08-24T12:11:14.504Z,100497.43
2017-08-24T12:12:21.532Z,100494.37
2017-08-24T12:13:30.437Z,100494.00
2017-08-24T12:14:37.602Z,100490.58
2017-08-24T12:15:46.835Z,100491.48
2017-08-24T12:16:54.285Z,100486.30
2017-08-24T12:18:02.129Z,100491.02
2017-08-24T12:19:09.707Z,100496.48
2017-08-24T12:20:17.385Z,100490.31
2017-08-24T12:21:25.545Z,100485.88
2017-08-24T12:22:34.291Z,100490.08
2017-08-24T12:23:43.040Z,100485.13
2017-08-24T12:24:50.768Z,100486.34
2017-08-24T12:25:59.421Z,100483.50
2017-08-24T12:27:13.263Z,100481.50
2017-08-24T12:28:25.454Z,100486.84
2017-08-24T12:29:37.851Z,100492.14
2017-08-24T12:31:03.543Z,100494.13
2017-08-24T12:32:19.956Z,100501.45
2017-08-24T12:33:28.272Z,100505.55
2017-08-24T12:34:36.286Z,100502.67
2017-08-24T12:35:44.405Z,100503.72
2017-08-24T12:36:52.740Z,100492.74
2017-08-24T12:38:02.993Z,100484.86
2017-08-24T12:39:12.194Z,100492.55
2017-08-24T12:40:22.959Z,100495.95
2017-08-24T12:41:32.523Z,100494.19
2017-08-24T12:42:44.247Z,100499.44
2017-08-24T12:43:54.019Z,100504.13
2017-08-24T12:45:04.067Z,100506.81
2017-08-24T12:46:13.728Z,100507.25
2017-08-24T12:47:22.145Z,100510.48
2017-08-24T12:48:29.260Z,100506.45
2017-08-24T12:49:37.040Z,100515.99
2017-08-24T12:50:44.795Z,100508.52
2017-08-24T12:51:52.293Z,100504.37
2017-08-24T12:52:58.383Z,100506.84
2017-08-24T12:54:04.937Z,100499.30
2017-08-24T12:55:12.745Z,100502.89
2017-08-24T12:56:20.941Z,100496.17
2017-08-24T12:57:29.699Z,100496.73
2017-08-24T12:58:36.475Z,100504.50
2017-08-24T12:59:42.983Z,100491.46
2017-08-24T13:00:49.406Z,100493.97
2017-08-24T13:01:56.695Z,100494.18
2017-08-24T13:03:03.663Z,100493.77
2017-08-24T13:04:10.026Z,100491.09
2017-08-24T13:05:16.329Z,100488.81
2017-08-24T13:06:22.522Z,100481.33
2017-08-24T13:07:28.618Z,100486.00
2017-08-24T13:08:35.452Z,100493.86
2017-08-24T13:09:41.723Z,100490.41
2017-08-24T13:10:48.267Z,100484.44
2017-08-24T13:11:57.531Z,100485.92
2017-08-24T13:13:03.903Z,100477.17
2017-08-24T13:14:17.346Z,100488.88
2017-08-24T13:15:24.817Z,100485.75
2017-08-24T13:16:40.240Z,100481.13
2017-08-24T13:17:47.392Z,100487.07
2017-08-24T13:18:59.804Z,100488.73
2017-08-24T13:20:08.623Z,100481.36
2017-08-24T13:21:17.890Z,100490.61
2017-08-24T13:22:25.718Z,100484.14
2017-08-24T13:23:32.971Z,100487.00
2017-08-24T13:24:41.445Z,100483.52
2017-08-24T13:25:51.576Z,100484.61
2017-08-24T13:27:00.020Z,100483.63
2017-08-24T13:28:07.624Z,100484.93
2017-08-24T13:30:28.465Z,100495.24
2017-08-24T13:31:36.556Z,100488.77
2017-08-24T13:32:44.454Z,100492.13
2017-08-24T13:33:52.482Z,100488.95
2017-08-24T13:34:59.311Z,100488.73
2017-08-24T13:37:33.915Z,100491.41
2017-08-24T13:38:44.563Z,100489.33
2017-08-24T13:39:52.432Z,100490.30
2017-08-24T13:41:00.962Z,100490.14
2017-08-24T13:42:08.575Z,100496.39
2017-08-24T13:43:15.491Z,100494.91
2017-08-24T13:44:23.580Z,100485.37
2017-08-24T13:45:29.904Z,100491.70
2017-08-24T13:46:38.680Z,100490.81
2017-08-24T13:47:49.703Z,100483.66
2017-08-24T13:48:56.089Z,100482.95
2017-08-24T13:50:07.006Z,100485.41
2017-08-24T13:51:23.665Z,100476.53
2017-08-24T13:52:42.267Z,100477.25
2017-08-24T13:53:56.945Z,100479.17
2017-08-24T13:55:17.625Z,100475.74
2017-08-24T13:56:31.788Z,100470.25
2017-08-24T13:57:41.726Z,100474.66
2017-08-24T13:58:49.970Z,100481.30
2017-08-24T13:59:57.503Z,100477.37
2017-08-24T14:01:04.994Z,100476.44
2017-08-24T14:02:15.736Z,100479.17
2017-08-24T14:03:33.530Z,100480.75
2017-08-24T14:04:41.603Z,100482.61
2017-08-24T14:05:48.579Z,100475.47
2017-08-24T14:06:58.437Z,100476.98
2017-08-24T14:08:10.451Z,100479.45
2017-08-24T14:09:20.104Z,100477.49
2017-08-24T14:10:33.323Z,100484.25
2017-08-24T14:11:43.295Z,100484.53
2017-08-24T14:12:51.533Z,100483.61
2017-08-24T14:14:00.412Z,100479.05
2017-08-24T14:15:09.938Z,100480.50
2017-08-24T14:16:22.972Z,100478.23
2017-08-24T14:17:29.538Z,100475.38
2017-08-24T14:18:37.754Z,100475.33
2017-08-24T14:19:52.308Z,100478.63
2017-08-24T14:21:04.140Z,100481.98
2017-08-24T14:22:18.300Z,100483.72
2017-08-24T14:23:26.691Z,100487.47
2017-08-24T14:24:36.457Z,100477.02
2017-08-24T14:25:44.225Z,100481.92
2017-08-24T14:26:54.526Z,100474.85
2017-08-24T14:28:07.609Z,100474.72
2017-08-24T14:29:15.654Z,100487.53
2017-08-24T14:30:22.006Z,100487.84
2017-08-24T14:31:28.779Z,100486.20
2017-08-24T14:32:51.154Z,100488.56
2017-08-24T14:35:43.514Z,100483.05
2017-08-24T14:37:02.216Z,100478.50
2017-08-24T14:41:30.105Z,100487.08
2017-08-24T14:42:45.494Z,100483.16
2017-08-24T14:43:56.763Z,100484.75
2017-08-24T14:45:15.369Z,100472.96
2017-08-24T14:46:24.591Z,100477.12
2017-08-24T14:47:37.366Z,100478.68
2017-08-24T14:51:55.285Z,100481.68
2017-08-24T14:53:02.071Z,100480.05
2017-08-24T14:54:09.856Z,100478.77
2017-08-24T14:55:16.704Z,100475.69
2017-08-24T14:57:54.277Z,100469.25
2017-08-24T14:59:25.728Z,100474.29
2017-08-24T16:14:01.138Z,100508.89
2017-08-24T16:15:14.228Z,100508.00
2017-08-24T16:16:30.902Z,100505.67
2017-08-24T16:17:49.152Z,100511.30
2017-08-24T16:18:59.870Z,100507.95
2017-08-24T16:20:06.931Z,100512.70
2017-08-24T16:21:39.964Z,100518.23
2017-08-24T16:22:46.836Z,100515.03
2017-08-24T16:23:53.622Z,100511.31
2017-08-24T16:25:00.766Z,100518.84
2017-08-24T16:26:08.211Z,100517.02
2017-08-24T16:27:25.165Z,100519.23
2017-08-24T16:28:32.748Z,100520.58
2017-08-24T16:29:40.231Z,100516.19
2017-08-24T16:32:23.574Z,100517.64
2017-08-24T16:35:34.431Z,100521.42
2017-08-24T16:37:09.069Z,100522.20
2017-08-24T16:38:16.610Z,100517.45
2017-08-24T16:39:24.035Z,100514.20
2017-08-24T16:40:43.677Z,100519.34
2017-08-24T17:19:38.300Z,100535.66
2017-08-24T17:20:51.788Z,100528.54
2017-08-24T17:23:34.527Z,100531.78
2017-08-24T17:24:44.242Z,100526.64
2017-08-24T17:25:52.107Z,100533.25
2017-08-24T17:27:03.018Z,100531.43
2017-08-24T17:28:13.159Z,100536.92
2017-08-24T17:29:20.865Z,100537.41
2017-08-24T17:30:28.152Z,100533.91
2017-08-24T17:31:37.135Z,100541.45
2017-08-24T17:32:49.736Z,100538.72
2017-08-24T17:34:01.615Z,100541.34
2017-08-24T17:35:14.128Z,100550.81
2017-08-24T17:36:23.570Z,100550.52
2017-08-24T17:37:37.034Z,100548.25
2017-08-24T17:38:45.974Z,100552.19
2017-08-24T17:39:54.908Z,100550.70
2017-08-24T17:51:26.419Z,100553.42
2017-08-24T17:52:35.423Z,100559.09
2017-08-24T17:53:42.407Z,100558.34
2017-08-24T17:54:49.228Z,100556.89
2017-08-24T17:55:57.270Z,100556.22
2017-08-24T17:57:03.688Z,100557.48
2017-08-24T17:58:09.721Z,100565.72
2017-08-24T17:59:17.334Z,100560.12
2017-08-24T18:00:25.488Z,100564.88
2017-08-24T18:01:32.773Z,100562.84
2017-08-24T18:02:38.621Z,100564.82
2017-08-24T18:03:45.808Z,100564.17
2017-08-24T18:04:52.119Z,100565.84
2017-08-24T18:05:59.464Z,100565.41
2017-08-24T18:08:32.580Z,100566.05
2017-08-24T18:09:39.402Z,100567.91
2017-08-24T18:10:45.598Z,100565.30
2017-08-24T18:11:51.603Z,100565.42
2017-08-24T18:12:57.557Z,100567.92
2017-08-24T18:14:05.529Z,100569.04
2017-08-24T18:15:13.130Z,100569.67
2017-08-24T18:16:19.017Z,100570.22
2017-08-24T18:17:25.619Z,100565.89
2017-08-24T18:18:31.844Z,100572.93
2017-08-24T18:19:38.895Z,100581.58
2017-08-24T18:20:45.579Z,100580.19
2017-08-24T18:21:51.640Z,100582.33
2017-08-24T18:23:00.105Z,100586.10
2017-08-24T18:24:06.259Z,100582.64
2017-08-24T18:25:12.153Z,100584.01
2017-08-24T18:26:18.116Z,100584.80
2017-08-24T18:27:23.990Z,100584.09
2017-08-24T18:28:30.308Z,100591.13
2017-08-24T18:29:36.515Z,100588.55
2017-08-24T18:30:42.396Z,100589.06
2017-08-24T18:31:49.194Z,100594.59
2017-08-24T18:32:55.080Z,100590.34
2017-08-24T18:34:01.330Z,100592.66
2017-08-24T18:35:07.223Z,100593.48
2017-08-24T18:36:13.127Z,100590.24
2017-08-24T18:37:19.029Z,100594.75
2017-08-24T18:38:25.146Z,100593.13
2017-08-24T18:39:30.988Z,100596.05
2017-08-24T18:40:36.842Z,100590.77
2017-08-24T18:41:43.477Z,100600.34
2017-08-24T18:42:49.428Z,100599.54
2017-08-24T18:43:55.328Z,100605.83
2017-08-24T18:45:01.202Z,100606.33
2017-08-24T18:46:08.522Z,100601.06
2017-08-24T18:47:14.617Z,100607.31
2017-08-24T18:48:23.075Z,100608.26
2017-08-24T18:49:32.682Z,100605.28
2017-08-24T18:50:42.770Z,100607.63
2017-08-24T18:51:52.158Z,100609.58
2017-08-24T18:53:02.142Z,100612.44
2017-08-24T18:54:09.889Z,100612.44
2017-08-24T18:55:18.591Z,100617.98
2017-08-24T18:56:28.114Z,100609.86
2017-08-24T18:57:36.473Z,100620.34
2017-08-24T18:58:43.914Z,100619.48
2017-08-24T18:59:50.982Z,100618.11
2017-08-24T19:00:58.660Z,100618.62
2017-08-24T19:02:05.190Z,100617.71
2017-08-24T19:03:11.410Z,100623.24
2017-08-24T19:04:18.646Z,100621.20
2017-08-24T19:05:25.575Z,100621.42
2017-08-24T19:06:32.931Z,100618.89
2017-08-24T19:07:40.804Z,100626.44
2017-08-24T19:08:47.337Z,100618.03
2017-08-24T19:09:53.708Z,100625.48
2017-08-24T19:11:01.385Z,100623.98
2017-08-24T19:12:08.526Z,100621.52
2017-08-24T19:13:15.788Z,100625.73
2017-08-24T19:14:22.092Z,100632.11
2017-08-24T19:15:29.630Z,100626.11
2017-08-24T19:16:37.971Z,100632.12
2017-08-24T19:17:45.379Z,100628.40
2017-08-24T19:18:52.742Z,100632.49
2017-08-24T19:20:00.099Z,100633.34
2017-08-24T19:21:07.659Z,100634.98
2017-08-24T19:22:13.855Z,100629.33
2017-08-24T19:23:21.060Z,100635.25
2017-08-24T19:24:29.130Z,100631.61
2017-08-24T19:25:37.179Z,100637.02
2017-08-24T19:26:43.458Z,100634.85
2017-08-24T19:27:50.235Z,100636.30
2017-08-24T19:28:56.653Z,100637.67
2017-08-24T19:30:04.181Z,100634.11
2017-08-24T19:31:11.426Z,100643.03
2017-08-24T19:32:18.929Z,100638.71
2017-08-24T19:33:25.375Z,100647.58
2017-08-24T19:34:32.752Z,100641.70
2017-08-24T19:35:40.922Z,100641.29
2017-08-24T19:36:47.896Z,100648.18